sensor_id;sensor_type;location;lat;lon;timestamp;temperature;humidity
50556;DHT22;36508;52.512;13.450;2022-10-16T00:01:23;15.80;99.90
50556;DHT22;36508;52.512;13.450;2022-10-16T00:03:49;15.80;99.90
50556;DHT22;36508;52.512;13.450;2022-10-16T00:06:17;15.80;99.90
50556;DHT22;36508;52.512;13.450;2022-10-16T00:08:43;15.80;99.90
50556;DHT22;36508;52.512;13.450;2022-10-16T00:11:12;15.80;99.90
50556;DHT22;36508;52.512;13.450;2022-10-16T00:13:40;15.80;99.90
50556;DHT22;36508;52.512;13.450;2022-10-16T00:16:06;15.90;99.90
50556;DHT22;36508;52.512;13.450;2022-10-16T00:18:32;15.90;99.90
50556;DHT22;36508;52.512;13.450;2022-10-16T00:21:15;15.90;99.90
50556;DHT22;36508;52.512;13.450;2022-10-16T00:23:41;16.00;99.90
50556;DHT22;36508;52.512;13.450;2022-10-16T00:26:09;16.00;99.90
50556;DHT22;36508;52.512;13.450;2022-10-16T00:28:36;16.00;99.90
50556;DHT22;36508;52.512;13.450;2022-10-16T00:31:07;16.00;99.90
50556;DHT22;36508;52.512;13.450;2022-10-16T00:33:33;16.00;99.90
50556;DHT22;36508;52.512;13.450;2022-10-16T00:35:59;16.00;99.90
50556;DHT22;36508;52.512;13.450;2022-10-16T00:38:25;16.10;99.90
50556;DHT22;36508;52.512;13.450;2022-10-16T00:40:50;16.00;99.90
50556;DHT22;36508;52.512;13.450;2022-10-16T00:43:44;16.00;99.90
50556;DHT22;36508;52.512;13.450;2022-10-16T00:46:22;16.10;99.90
50556;DHT22;36508;52.512;13.450;2022-10-16T00:49:00;16.00;99.90
50556;DHT22;36508;52.512;13.450;2022-10-16T00:51:33;16.00;99.90
50556;DHT22;36508;52.512;13.450;2022-10-16T00:54:00;16.00;99.90
50556;DHT22;36508;52.512;13.450;2022-10-16T00:56:27;16.00;99.90
50556;DHT22;36508;52.512;13.450;2022-10-16T00:58:53;16.00;99.90
50556;DHT22;36508;52.512;13.450;2022-10-16T01:01:19;16.00;99.90
50556;DHT22;36508;52.512;13.450;2022-10-16T01:03:44;16.00;99.90
50556;DHT22;36508;52.512;13.450;2022-10-16T01:09:15;15.90;99.90
50556;DHT22;36508;52.512;13.450;2022-10-16T01:11:49;16.00;99.90
50556;DHT22;36508;52.512;13.450;2022-10-16T01:14:26;16.00;99.90
50556;DHT22;36508;52.512;13.450;2022-10-16T01:16:58;15.90;99.90
50556;DHT22;36508;52.512;13.450;2022-10-16T01:22:08;16.00;99.90
50556;DHT22;36508;52.512;13.450;2022-10-16T01:24:40;15.90;99.90
50556;DHT22;36508;52.512;13.450;2022-10-16T01:30:07;15.80;99.90
50556;DHT22;36508;52.512;13.450;2022-10-16T01:32:39;15.90;99.90
50556;DHT22;36508;52.512;13.450;2022-10-16T01:35:14;15.80;99.90
50556;DHT22;36508;52.512;13.450;2022-10-16T01:37:48;15.90;99.90
50556;DHT22;36508;52.512;13.450;2022-10-16T01:40:18;15.90;99.90
50556;DHT22;36508;52.512;13.450;2022-10-16T01:42:52;15.90;99.90
50556;DHT22;36508;52.512;13.450;2022-10-16T01:45:19;15.90;99.90
50556;DHT22;36508;52.512;13.450;2022-10-16T01:47:49;15.90;99.90
50556;DHT22;36508;52.512;13.450;2022-10-16T01:50:18;15.90;99.90
50556;DHT22;36508;52.512;13.450;2022-10-16T01:52:46;15.80;99.90
50556;DHT22;36508;52.512;13.450;2022-10-16T01:55:20;15.90;99.90
50556;DHT22;36508;52.512;13.450;2022-10-16T01:57:49;15.80;99.90
50556;DHT22;36508;52.512;13.450;2022-10-16T02:00:17;15.80;99.90
50556;DHT22;36508;52.512;13.450;2022-10-16T02:02:47;15.90;99.90
50556;DHT22;36508;52.512;13.450;2022-10-16T02:05:22;16.00;99.90
50556;DHT22;36508;52.512;13.450;2022-10-16T02:07:50;15.90;99.90
50556;DHT22;36508;52.512;13.450;2022-10-16T02:10:16;15.90;99.90
50556;DHT22;36508;52.512;13.450;2022-10-16T02:12:45;16.00;99.90
50556;DHT22;36508;52.512;13.450;2022-10-16T02:15:12;16.00;99.90
50556;DHT22;36508;52.512;13.450;2022-10-16T02:17:38;16.00;99.90
50556;DHT22;36508;52.512;13.450;2022-10-16T02:20:04;16.00;99.90
50556;DHT22;36508;52.512;13.450;2022-10-16T02:22:33;16.00;99.90
50556;DHT22;36508;52.512;13.450;2022-10-16T02:25:20;16.00;99.90
50556;DHT22;36508;52.512;13.450;2022-10-16T02:27:54;15.90;99.90
50556;DHT22;36508;52.512;13.450;2022-10-16T02:30:34;15.90;99.90
50556;DHT22;36508;52.512;13.450;2022-10-16T02:33:04;16.00;99.90
50556;DHT22;36508;52.512;13.450;2022-10-16T02:35:30;16.00;99.90
50556;DHT22;36508;52.512;13.450;2022-10-16T02:37:56;16.00;99.90
50556;DHT22;36508;52.512;13.450;2022-10-16T02:42:52;16.00;99.90
50556;DHT22;36508;52.512;13.450;2022-10-16T02:45:19;16.00;99.90
50556;DHT22;36508;52.512;13.450;2022-10-16T02:47:44;16.10;99.90
50556;DHT22;36508;52.512;13.450;2022-10-16T02:50:10;16.00;99.90
50556;DHT22;36508;52.512;13.450;2022-10-16T02:52:35;16.00;99.90
50556;DHT22;36508;52.512;13.450;2022-10-16T02:55:01;16.00;99.90
50556;DHT22;36508;52.512;13.450;2022-10-16T02:57:27;16.00;99.90
50556;DHT22;36508;52.512;13.450;2022-10-16T02:59:52;16.00;99.90
50556;DHT22;36508;52.512;13.450;2022-10-16T03:02:18;16.10;99.90
50556;DHT22;36508;52.512;13.450;2022-10-16T03:04:43;16.00;99.90
50556;DHT22;36508;52.512;13.450;2022-10-16T03:07:09;16.00;99.90
50556;DHT22;36508;52.512;13.450;2022-10-16T03:09:34;16.00;99.90
50556;DHT22;36508;52.512;13.450;2022-10-16T03:12:00;16.00;99.90
50556;DHT22;36508;52.512;13.450;2022-10-16T03:14:25;15.90;99.90
50556;DHT22;36508;52.512;13.450;2022-10-16T03:16:51;15.90;99.90
50556;DHT22;36508;52.512;13.450;2022-10-16T03:19:17;15.90;99.90
50556;DHT22;36508;52.512;13.450;2022-10-16T03:21:43;15.90;99.90
50556;DHT22;36508;52.512;13.450;2022-10-16T03:24:09;15.90;99.90
50556;DHT22;36508;52.512;13.450;2022-10-16T03:26:34;15.90;99.90
50556;DHT22;36508;52.512;13.450;2022-10-16T03:29:00;15.80;99.90
50556;DHT22;36508;52.512;13.450;2022-10-16T03:31:27;15.80;99.90
50556;DHT22;36508;52.512;13.450;2022-10-16T03:33:53;15.80;99.90
50556;DHT22;36508;52.512;13.450;2022-10-16T03:36:18;15.80;99.90
50556;DHT22;36508;52.512;13.450;2022-10-16T03:38:44;15.80;99.90
50556;DHT22;36508;52.512;13.450;2022-10-16T03:41:09;15.70;99.90
50556;DHT22;36508;52.512;13.450;2022-10-16T03:43:35;15.70;99.90
50556;DHT22;36508;52.512;13.450;2022-10-16T03:46:01;15.60;99.90
50556;DHT22;36508;52.512;13.450;2022-10-16T03:48:26;15.70;99.90
50556;DHT22;36508;52.512;13.450;2022-10-16T03:50:52;15.70;99.90
50556;DHT22;36508;52.512;13.450;2022-10-16T03:53:17;15.70;99.90
50556;DHT22;36508;52.512;13.450;2022-10-16T03:55:44;15.60;99.90
50556;DHT22;36508;52.512;13.450;2022-10-16T03:58:10;15.70;99.90
50556;DHT22;36508;52.512;13.450;2022-10-16T04:00:42;15.70;99.90
50556;DHT22;36508;52.512;13.450;2022-10-16T04:03:08;15.60;99.90
50556;DHT22;36508;52.512;13.450;2022-10-16T04:05:34;15.60;99.90
50556;DHT22;36508;52.512;13.450;2022-10-16T04:07:59;15.60;99.90
50556;DHT22;36508;52.512;13.450;2022-10-16T04:10:25;15.60;99.90
50556;DHT22;36508;52.512;13.450;2022-10-16T04:12:51;15.60;99.90
50556;DHT22;36508;52.512;13.450;2022-10-16T04:15:16;15.60;99.90
50556;DHT22;36508;52.512;13.450;2022-10-16T04:17:42;15.50;99.90
50556;DHT22;36508;52.512;13.450;2022-10-16T04:20:08;15.50;99.90
50556;DHT22;36508;52.512;13.450;2022-10-16T04:22:33;15.60;99.90
50556;DHT22;36508;52.512;13.450;2022-10-16T04:24:59;15.60;99.90
50556;DHT22;36508;52.512;13.450;2022-10-16T04:27:25;15.50;99.90
50556;DHT22;36508;52.512;13.450;2022-10-16T04:29:50;15.50;99.90
50556;DHT22;36508;52.512;13.450;2022-10-16T04:32:16;15.50;99.90
50556;DHT22;36508;52.512;13.450;2022-10-16T04:34:41;15.50;99.90
50556;DHT22;36508;52.512;13.450;2022-10-16T04:37:07;15.40;99.90
50556;DHT22;36508;52.512;13.450;2022-10-16T04:39:32;15.40;99.90
50556;DHT22;36508;52.512;13.450;2022-10-16T04:41:58;15.40;99.90
50556;DHT22;36508;52.512;13.450;2022-10-16T04:44:23;15.40;99.90
50556;DHT22;36508;52.512;13.450;2022-10-16T04:46:52;15.50;99.90
50556;DHT22;36508;52.512;13.450;2022-10-16T04:49:17;15.40;99.90
50556;DHT22;36508;52.512;13.450;2022-10-16T04:51:43;15.50;99.90
50556;DHT22;36508;52.512;13.450;2022-10-16T04:54:11;15.40;99.90
50556;DHT22;36508;52.512;13.450;2022-10-16T04:56:36;15.40;99.90
50556;DHT22;36508;52.512;13.450;2022-10-16T04:59:09;15.40;99.90
50556;DHT22;36508;52.512;13.450;2022-10-16T05:01:34;15.50;99.90
50556;DHT22;36508;52.512;13.450;2022-10-16T05:04:00;15.40;99.90
50556;DHT22;36508;52.512;13.450;2022-10-16T05:06:25;15.40;99.90
50556;DHT22;36508;52.512;13.450;2022-10-16T05:08:51;15.40;99.90
50556;DHT22;36508;52.512;13.450;2022-10-16T05:11:18;15.40;99.90
50556;DHT22;36508;52.512;13.450;2022-10-16T05:13:43;15.30;99.90
50556;DHT22;36508;52.512;13.450;2022-10-16T05:16:09;15.20;99.90
50556;DHT22;36508;52.512;13.450;2022-10-16T05:18:34;15.40;99.90
50556;DHT22;36508;52.512;13.450;2022-10-16T05:21:00;15.30;99.90
50556;DHT22;36508;52.512;13.450;2022-10-16T05:23:25;15.30;99.90
50556;DHT22;36508;52.512;13.450;2022-10-16T05:25:55;15.30;99.90
50556;DHT22;36508;52.512;13.450;2022-10-16T05:28:24;15.20;99.90
50556;DHT22;36508;52.512;13.450;2022-10-16T05:30:49;15.20;99.90
50556;DHT22;36508;52.512;13.450;2022-10-16T05:33:15;15.20;99.90
50556;DHT22;36508;52.512;13.450;2022-10-16T05:35:40;15.30;99.90
50556;DHT22;36508;52.512;13.450;2022-10-16T05:38:06;15.30;99.90
50556;DHT22;36508;52.512;13.450;2022-10-16T05:40:33;15.30;99.90
50556;DHT22;36508;52.512;13.450;2022-10-16T05:42:58;15.30;99.90
50556;DHT22;36508;52.512;13.450;2022-10-16T05:45:24;15.30;99.90
50556;DHT22;36508;52.512;13.450;2022-10-16T05:47:49;15.20;99.90
50556;DHT22;36508;52.512;13.450;2022-10-16T05:50:15;15.20;99.90
50556;DHT22;36508;52.512;13.450;2022-10-16T05:52:41;15.10;99.90
50556;DHT22;36508;52.512;13.450;2022-10-16T05:55:07;15.20;99.90
50556;DHT22;36508;52.512;13.450;2022-10-16T05:57:32;15.10;99.90
50556;DHT22;36508;52.512;13.450;2022-10-16T05:59:58;15.10;99.90
50556;DHT22;36508;52.512;13.450;2022-10-16T06:02:23;15.20;99.90
50556;DHT22;36508;52.512;13.450;2022-10-16T06:04:49;15.30;99.90
50556;DHT22;36508;52.512;13.450;2022-10-16T06:07:14;15.30;99.90
50556;DHT22;36508;52.512;13.450;2022-10-16T06:09:40;15.20;99.90
50556;DHT22;36508;52.512;13.450;2022-10-16T06:12:05;15.30;99.90
50556;DHT22;36508;52.512;13.450;2022-10-16T06:14:31;15.20;99.90
50556;DHT22;36508;52.512;13.450;2022-10-16T06:16:57;15.30;99.90
50556;DHT22;36508;52.512;13.450;2022-10-16T06:19:23;15.40;99.90
50556;DHT22;36508;52.512;13.450;2022-10-16T06:21:48;15.50;99.90
50556;DHT22;36508;52.512;13.450;2022-10-16T06:24:14;15.60;99.90
50556;DHT22;36508;52.512;13.450;2022-10-16T06:26:39;15.70;99.90
50556;DHT22;36508;52.512;13.450;2022-10-16T06:29:05;15.60;99.90
50556;DHT22;36508;52.512;13.450;2022-10-16T06:31:30;15.70;99.90
50556;DHT22;36508;52.512;13.450;2022-10-16T06:33:58;15.80;99.90
50556;DHT22;36508;52.512;13.450;2022-10-16T06:36:24;15.70;99.90
50556;DHT22;36508;52.512;13.450;2022-10-16T06:38:50;15.80;99.90
50556;DHT22;36508;52.512;13.450;2022-10-16T06:41:18;15.70;99.90
50556;DHT22;36508;52.512;13.450;2022-10-16T06:43:45;15.80;99.90
50556;DHT22;36508;52.512;13.450;2022-10-16T06:46:14;15.90;99.90
50556;DHT22;36508;52.512;13.450;2022-10-16T06:48:41;15.90;99.90
50556;DHT22;36508;52.512;13.450;2022-10-16T06:51:11;16.00;99.90
50556;DHT22;36508;52.512;13.450;2022-10-16T06:53:39;15.80;99.90
50556;DHT22;36508;52.512;13.450;2022-10-16T06:56:17;15.80;99.90
50556;DHT22;36508;52.512;13.450;2022-10-16T06:58:43;15.70;99.90
50556;DHT22;36508;52.512;13.450;2022-10-16T07:01:09;15.70;99.90
50556;DHT22;36508;52.512;13.450;2022-10-16T07:03:40;15.80;99.90
50556;DHT22;36508;52.512;13.450;2022-10-16T07:06:07;15.90;99.90
50556;DHT22;36508;52.512;13.450;2022-10-16T07:08:35;16.00;99.90
50556;DHT22;36508;52.512;13.450;2022-10-16T07:11:02;16.20;99.90
50556;DHT22;36508;52.512;13.450;2022-10-16T07:13:28;16.40;99.90
50556;DHT22;36508;52.512;13.450;2022-10-16T07:15:54;16.60;99.90
50556;DHT22;36508;52.512;13.450;2022-10-16T07:18:19;16.80;99.90
50556;DHT22;36508;52.512;13.450;2022-10-16T07:20:45;16.90;99.90
50556;DHT22;36508;52.512;13.450;2022-10-16T07:23:11;17.00;99.90
50556;DHT22;36508;52.512;13.450;2022-10-16T07:25:36;16.90;99.90
50556;DHT22;36508;52.512;13.450;2022-10-16T07:28:02;17.00;99.90
50556;DHT22;36508;52.512;13.450;2022-10-16T07:30:27;17.10;99.90
50556;DHT22;36508;52.512;13.450;2022-10-16T07:32:53;17.00;99.90
50556;DHT22;36508;52.512;13.450;2022-10-16T07:35:18;17.20;99.90
50556;DHT22;36508;52.512;13.450;2022-10-16T07:37:45;17.20;99.90
50556;DHT22;36508;52.512;13.450;2022-10-16T07:40:11;17.10;99.90
50556;DHT22;36508;52.512;13.450;2022-10-16T07:42:36;17.10;99.90
50556;DHT22;36508;52.512;13.450;2022-10-16T07:45:02;17.10;99.90
50556;DHT22;36508;52.512;13.450;2022-10-16T07:47:28;17.00;99.90
50556;DHT22;36508;52.512;13.450;2022-10-16T07:49:53;16.90;99.90
50556;DHT22;36508;52.512;13.450;2022-10-16T07:52:19;17.00;99.90
50556;DHT22;36508;52.512;13.450;2022-10-16T07:54:44;17.10;99.90
50556;DHT22;36508;52.512;13.450;2022-10-16T07:57:10;17.20;99.90
50556;DHT22;36508;52.512;13.450;2022-10-16T07:59:35;17.10;99.90
50556;DHT22;36508;52.512;13.450;2022-10-16T08:02:02;17.10;99.90
50556;DHT22;36508;52.512;13.450;2022-10-16T08:04:28;17.10;99.90
50556;DHT22;36508;52.512;13.450;2022-10-16T08:06:53;17.10;99.90
50556;DHT22;36508;52.512;13.450;2022-10-16T08:09:19;17.20;99.90
50556;DHT22;36508;52.512;13.450;2022-10-16T08:11:45;17.20;99.90
50556;DHT22;36508;52.512;13.450;2022-10-16T08:14:10;17.40;99.90
50556;DHT22;36508;52.512;13.450;2022-10-16T08:16:36;17.50;99.90
50556;DHT22;36508;52.512;13.450;2022-10-16T08:19:02;17.50;99.90
50556;DHT22;36508;52.512;13.450;2022-10-16T08:21:27;17.50;99.90
50556;DHT22;36508;52.512;13.450;2022-10-16T08:23:53;17.50;99.90
50556;DHT22;36508;52.512;13.450;2022-10-16T08:26:19;17.80;99.90
50556;DHT22;36508;52.512;13.450;2022-10-16T08:28:45;17.70;99.90
50556;DHT22;36508;52.512;13.450;2022-10-16T08:31:13;17.70;99.90
50556;DHT22;36508;52.512;13.450;2022-10-16T08:33:41;17.70;99.90
50556;DHT22;36508;52.512;13.450;2022-10-16T08:36:07;17.80;99.90
50556;DHT22;36508;52.512;13.450;2022-10-16T08:38:33;17.70;99.90
50556;DHT22;36508;52.512;13.450;2022-10-16T08:49:37;17.60;99.90
50556;DHT22;36508;52.512;13.450;2022-10-16T08:52:04;17.70;99.90
50556;DHT22;36508;52.512;13.450;2022-10-16T08:54:35;17.80;99.90
50556;DHT22;36508;52.512;13.450;2022-10-16T08:57:16;17.80;99.90
50556;DHT22;36508;52.512;13.450;2022-10-16T08:59:42;17.80;99.90
50556;DHT22;36508;52.512;13.450;2022-10-16T09:02:32;17.90;99.90
50556;DHT22;36508;52.512;13.450;2022-10-16T09:05:30;17.70;99.90
50556;DHT22;36508;52.512;13.450;2022-10-16T09:11:09;17.70;99.90
50556;DHT22;36508;52.512;13.450;2022-10-16T09:13:52;18.00;99.90
50556;DHT22;36508;52.512;13.450;2022-10-16T09:16:30;18.10;99.90
50556;DHT22;36508;52.512;13.450;2022-10-16T09:19:24;18.20;99.90
50556;DHT22;36508;52.512;13.450;2022-10-16T09:21:53;18.30;99.90
50556;DHT22;36508;52.512;13.450;2022-10-16T09:24:21;18.40;99.90
50556;DHT22;36508;52.512;13.450;2022-10-16T09:26:49;18.50;99.90
50556;DHT22;36508;52.512;13.450;2022-10-16T09:29:16;18.40;99.90
50556;DHT22;36508;52.512;13.450;2022-10-16T09:31:43;18.70;99.90
50556;DHT22;36508;52.512;13.450;2022-10-16T09:34:36;18.70;99.90
50556;DHT22;36508;52.512;13.450;2022-10-16T09:37:14;18.70;99.90
50556;DHT22;36508;52.512;13.450;2022-10-16T09:39:50;18.70;99.90
50556;DHT22;36508;52.512;13.450;2022-10-16T09:42:20;18.50;99.90
50556;DHT22;36508;52.512;13.450;2022-10-16T09:44:51;18.70;99.90
50556;DHT22;36508;52.512;13.450;2022-10-16T09:47:20;18.80;99.90
50556;DHT22;36508;52.512;13.450;2022-10-16T09:49:58;18.90;99.90
50556;DHT22;36508;52.512;13.450;2022-10-16T09:52:26;19.00;99.90
50556;DHT22;36508;52.512;13.450;2022-10-16T09:55:09;19.00;99.90
50556;DHT22;36508;52.512;13.450;2022-10-16T09:57:47;19.00;99.90
50556;DHT22;36508;52.512;13.450;2022-10-16T10:00:16;19.00;99.90
50556;DHT22;36508;52.512;13.450;2022-10-16T10:02:43;19.10;99.90
50556;DHT22;36508;52.512;13.450;2022-10-16T10:05:21;19.00;99.90
50556;DHT22;36508;52.512;13.450;2022-10-16T10:07:57;19.30;99.90
50556;DHT22;36508;52.512;13.450;2022-10-16T10:10:25;20.30;99.90
50556;DHT22;36508;52.512;13.450;2022-10-16T10:12:52;21.50;99.90
50556;DHT22;36508;52.512;13.450;2022-10-16T10:15:18;21.20;99.90
50556;DHT22;36508;52.512;13.450;2022-10-16T10:17:54;20.70;99.90
50556;DHT22;36508;52.512;13.450;2022-10-16T10:20:34;20.30;99.90
50556;DHT22;36508;52.512;13.450;2022-10-16T10:23:13;20.20;99.90
50556;DHT22;36508;52.512;13.450;2022-10-16T10:26:12;20.00;99.90
50556;DHT22;36508;52.512;13.450;2022-10-16T10:29:01;19.60;99.90
50556;DHT22;36508;52.512;13.450;2022-10-16T10:32:12;19.70;99.90
50556;DHT22;36508;52.512;13.450;2022-10-16T10:35:15;19.60;99.90
50556;DHT22;36508;52.512;13.450;2022-10-16T10:37:55;19.50;99.90
50556;DHT22;36508;52.512;13.450;2022-10-16T10:54:24;22.20;99.90
50556;DHT22;36508;52.512;13.450;2022-10-16T10:57:23;21.70;99.90
50556;DHT22;36508;52.512;13.450;2022-10-16T11:05:33;20.80;99.90
50556;DHT22;36508;52.512;13.450;2022-10-16T11:10:57;23.30;99.90
50556;DHT22;36508;52.512;13.450;2022-10-16T11:13:35;23.80;99.90
50556;DHT22;36508;52.512;13.450;2022-10-16T11:16:11;24.00;99.90
50556;DHT22;36508;52.512;13.450;2022-10-16T11:18:55;24.20;99.90
50556;DHT22;36508;52.512;13.450;2022-10-16T11:21:22;23.20;99.90
50556;DHT22;36508;52.512;13.450;2022-10-16T11:24:00;22.40;99.90
50556;DHT22;36508;52.512;13.450;2022-10-16T11:26:34;22.00;99.90
50556;DHT22;36508;52.512;13.450;2022-10-16T11:31:36;21.50;99.90
50556;DHT22;36508;52.512;13.450;2022-10-16T11:36:42;21.40;99.90
50556;DHT22;36508;52.512;13.450;2022-10-16T11:39:20;22.10;99.90
50556;DHT22;36508;52.512;13.450;2022-10-16T11:41:56;22.60;99.90
50556;DHT22;36508;52.512;13.450;2022-10-16T11:55:38;24.70;99.90
50556;DHT22;36508;52.512;13.450;2022-10-16T11:58:12;23.10;99.90
50556;DHT22;36508;52.512;13.450;2022-10-16T12:00:47;22.30;99.90
50556;DHT22;36508;52.512;13.450;2022-10-16T12:03:34;21.60;99.90
50556;DHT22;36508;52.512;13.450;2022-10-16T12:08:47;20.50;99.90
50556;DHT22;36508;52.512;13.450;2022-10-16T12:16:58;20.60;99.90
50556;DHT22;36508;52.512;13.450;2022-10-16T12:19:29;21.20;99.90
50556;DHT22;36508;52.512;13.450;2022-10-16T12:22:00;22.20;99.90
50556;DHT22;36508;52.512;13.450;2022-10-16T12:24:41;22.60;99.90
50556;DHT22;36508;52.512;13.450;2022-10-16T12:27:29;22.40;99.90
50556;DHT22;36508;52.512;13.450;2022-10-16T12:30:00;22.60;99.90
50556;DHT22;36508;52.512;13.450;2022-10-16T12:32:32;22.40;99.90
50556;DHT22;36508;52.512;13.450;2022-10-16T12:35:03;22.20;99.90
50556;DHT22;36508;52.512;13.450;2022-10-16T12:37:35;22.20;99.90
50556;DHT22;36508;52.512;13.450;2022-10-16T12:42:41;22.50;99.90
50556;DHT22;36508;52.512;13.450;2022-10-16T12:45:33;22.50;99.90
50556;DHT22;36508;52.512;13.450;2022-10-16T12:50:29;22.80;99.90
50556;DHT22;36508;52.512;13.450;2022-10-16T12:52:56;23.00;99.90
50556;DHT22;36508;52.512;13.450;2022-10-16T12:55:22;23.80;99.90
50556;DHT22;36508;52.512;13.450;2022-10-16T12:58:00;23.30;99.90
50556;DHT22;36508;52.512;13.450;2022-10-16T13:00:33;22.80;99.90
50556;DHT22;36508;52.512;13.450;2022-10-16T13:06:06;22.50;99.90
50556;DHT22;36508;52.512;13.450;2022-10-16T13:09:00;23.00;99.90
50556;DHT22;36508;52.512;13.450;2022-10-16T13:14:33;24.10;99.90
50556;DHT22;36508;52.512;13.450;2022-10-16T13:20:14;23.20;99.90
50556;DHT22;36508;52.512;13.450;2022-10-16T13:28:11;22.50;99.90
50556;DHT22;36508;52.512;13.450;2022-10-16T13:30:50;22.90;99.90
50556;DHT22;36508;52.512;13.450;2022-10-16T13:35:55;23.10;99.90
50556;DHT22;36508;52.512;13.450;2022-10-16T13:38:26;22.90;99.90
50556;DHT22;36508;52.512;13.450;2022-10-16T13:41:16;22.80;99.90
50556;DHT22;36508;52.512;13.450;2022-10-16T13:43:52;22.80;99.90
50556;DHT22;36508;52.512;13.450;2022-10-16T13:46:23;22.50;99.90
50556;DHT22;36508;52.512;13.450;2022-10-16T13:49:05;23.00;99.90
50556;DHT22;36508;52.512;13.450;2022-10-16T13:51:32;23.70;99.90
50556;DHT22;36508;52.512;13.450;2022-10-16T13:53:58;23.90;99.90
50556;DHT22;36508;52.512;13.450;2022-10-16T13:56:30;24.50;99.90
50556;DHT22;36508;52.512;13.450;2022-10-16T13:59:24;24.60;99.90
50556;DHT22;36508;52.512;13.450;2022-10-16T14:01:55;25.40;99.90
50556;DHT22;36508;52.512;13.450;2022-10-16T14:04:22;25.40;99.90
50556;DHT22;36508;52.512;13.450;2022-10-16T14:06:54;25.40;99.90
50556;DHT22;36508;52.512;13.450;2022-10-16T14:09:28;25.50;99.90
50556;DHT22;36508;52.512;13.450;2022-10-16T14:12:07;25.70;99.90
50556;DHT22;36508;52.512;13.450;2022-10-16T14:14:42;25.90;99.90
50556;DHT22;36508;52.512;13.450;2022-10-16T14:19:50;25.90;99.90
50556;DHT22;36508;52.512;13.450;2022-10-16T14:24:56;26.50;99.90
50556;DHT22;36508;52.512;13.450;2022-10-16T14:27:33;25.50;99.90
50556;DHT22;36508;52.512;13.450;2022-10-16T14:30:21;25.00;99.90
50556;DHT22;36508;52.512;13.450;2022-10-16T14:32:55;23.30;99.90
50556;DHT22;36508;52.512;13.450;2022-10-16T14:35:25;22.30;99.90
50556;DHT22;36508;52.512;13.450;2022-10-16T14:37:53;21.70;99.90
50556;DHT22;36508;52.512;13.450;2022-10-16T14:40:19;21.40;99.90
50556;DHT22;36508;52.512;13.450;2022-10-16T14:42:45;21.10;99.90
50556;DHT22;36508;52.512;13.450;2022-10-16T14:45:11;21.00;99.90
50556;DHT22;36508;52.512;13.450;2022-10-16T14:47:47;20.90;99.90
50556;DHT22;36508;52.512;13.450;2022-10-16T14:50:13;20.80;99.90
50556;DHT22;36508;52.512;13.450;2022-10-16T14:52:39;20.70;99.90
50556;DHT22;36508;52.512;13.450;2022-10-16T14:55:05;20.60;99.90
50556;DHT22;36508;52.512;13.450;2022-10-16T14:57:33;20.60;99.90
50556;DHT22;36508;52.512;13.450;2022-10-16T15:00:01;20.50;99.90
50556;DHT22;36508;52.512;13.450;2022-10-16T15:02:31;20.60;99.90
50556;DHT22;36508;52.512;13.450;2022-10-16T15:05:20;20.50;99.90
50556;DHT22;36508;52.512;13.450;2022-10-16T15:07:46;20.40;99.90
50556;DHT22;36508;52.512;13.450;2022-10-16T15:10:13;20.30;99.90
50556;DHT22;36508;52.512;13.450;2022-10-16T15:12:39;20.30;99.90
50556;DHT22;36508;52.512;13.450;2022-10-16T15:17:57;20.20;99.90
50556;DHT22;36508;52.512;13.450;2022-10-16T15:20:34;20.20;99.90
50556;DHT22;36508;52.512;13.450;2022-10-16T15:23:02;20.20;99.90
50556;DHT22;36508;52.512;13.450;2022-10-16T15:25:32;20.10;99.90
50556;DHT22;36508;52.512;13.450;2022-10-16T15:27:59;20.00;99.90
50556;DHT22;36508;52.512;13.450;2022-10-16T15:30:25;20.00;99.90
50556;DHT22;36508;52.512;13.450;2022-10-16T15:32:51;19.90;99.90
50556;DHT22;36508;52.512;13.450;2022-10-16T15:35:19;19.90;99.90
50556;DHT22;36508;52.512;13.450;2022-10-16T15:37:46;19.80;99.90
50556;DHT22;36508;52.512;13.450;2022-10-16T15:40:12;19.70;99.90
50556;DHT22;36508;52.512;13.450;2022-10-16T15:42:38;19.70;99.90
50556;DHT22;36508;52.512;13.450;2022-10-16T15:45:04;19.70;99.90
50556;DHT22;36508;52.512;13.450;2022-10-16T15:47:31;19.70;99.90
50556;DHT22;36508;52.512;13.450;2022-10-16T15:49:57;19.60;99.90
50556;DHT22;36508;52.512;13.450;2022-10-16T15:52:22;19.60;99.90
50556;DHT22;36508;52.512;13.450;2022-10-16T15:54:48;19.60;99.90
50556;DHT22;36508;52.512;13.450;2022-10-16T15:57:13;19.60;99.90
50556;DHT22;36508;52.512;13.450;2022-10-16T15:59:39;19.50;99.90
50556;DHT22;36508;52.512;13.450;2022-10-16T16:02:05;19.40;99.90
50556;DHT22;36508;52.512;13.450;2022-10-16T16:04:30;19.40;99.90
50556;DHT22;36508;52.512;13.450;2022-10-16T16:06:56;19.30;99.90
50556;DHT22;36508;52.512;13.450;2022-10-16T16:09:22;19.30;99.90
50556;DHT22;36508;52.512;13.450;2022-10-16T16:11:48;19.10;99.90
50556;DHT22;36508;52.512;13.450;2022-10-16T16:14:14;19.10;99.90
50556;DHT22;36508;52.512;13.450;2022-10-16T16:16:40;19.10;99.90
50556;DHT22;36508;52.512;13.450;2022-10-16T16:19:06;19.00;99.90
50556;DHT22;36508;52.512;13.450;2022-10-16T16:21:33;18.80;99.90
50556;DHT22;36508;52.512;13.450;2022-10-16T16:23:59;18.80;99.90
50556;DHT22;36508;52.512;13.450;2022-10-16T16:26:26;18.80;99.90
50556;DHT22;36508;52.512;13.450;2022-10-16T16:28:53;18.80;99.90
50556;DHT22;36508;52.512;13.450;2022-10-16T16:31:20;18.70;99.90
50556;DHT22;36508;52.512;13.450;2022-10-16T16:33:46;18.70;99.90
50556;DHT22;36508;52.512;13.450;2022-10-16T16:36:12;18.70;99.90
50556;DHT22;36508;52.512;13.450;2022-10-16T16:38:38;18.50;99.90
50556;DHT22;36508;52.512;13.450;2022-10-16T16:41:13;18.30;99.90
50556;DHT22;36508;52.512;13.450;2022-10-16T16:43:39;18.20;99.90
50556;DHT22;36508;52.512;13.450;2022-10-16T16:46:05;18.20;99.90
50556;DHT22;36508;52.512;13.450;2022-10-16T16:48:31;18.20;99.90
50556;DHT22;36508;52.512;13.450;2022-10-16T16:51:01;18.30;99.90
50556;DHT22;36508;52.512;13.450;2022-10-16T16:53:27;18.30;99.90
50556;DHT22;36508;52.512;13.450;2022-10-16T16:55:52;18.30;99.90
50556;DHT22;36508;52.512;13.450;2022-10-16T16:58:18;18.20;99.90
50556;DHT22;36508;52.512;13.450;2022-10-16T17:00:47;18.20;99.90
50556;DHT22;36508;52.512;13.450;2022-10-16T17:03:12;18.10;99.90
50556;DHT22;36508;52.512;13.450;2022-10-16T17:05:38;18.20;99.90
50556;DHT22;36508;52.512;13.450;2022-10-16T17:08:06;18.10;99.90
50556;DHT22;36508;52.512;13.450;2022-10-16T17:10:32;18.00;99.90